sensor_id;sensor_type;location;lat;lon;timestamp;P1;durP1;ratioP1;P2;durP2;ratioP2
40339;SDS011;26044;50.864;20.658;2023-04-05T00:02:15;44.67;;;18.52;;
40339;SDS011;26044;50.864;20.658;2023-04-05T00:04:44;47.45;;;17.98;;
40339;SDS011;26044;50.864;20.658;2023-04-05T00:07:17;45.90;;;18.48;;
40339;SDS011;26044;50.864;20.658;2023-04-05T00:09:46;46.97;;;18.67;;
40339;SDS011;26044;50.864;20.658;2023-04-05T00:12:14;47.90;;;19.38;;
40339;SDS011;26044;50.864;20.658;2023-04-05T00:14:41;49.97;;;19.48;;
40339;SDS011;26044;50.864;20.658;2023-04-05T00:17:08;44.65;;;17.48;;
40339;SDS011;26044;50.864;20.658;2023-04-05T00:19:37;48.88;;;18.08;;
40339;SDS011;26044;50.864;20.658;2023-04-05T00:22:04;46.10;;;19.17;;
40339;SDS011;26044;50.864;20.658;2023-04-05T00:24:31;54.13;;;19.60;;
40339;SDS011;26044;50.864;20.658;2023-04-05T00:26:59;48.25;;;18.92;;
40339;SDS011;26044;50.864;20.658;2023-04-05T00:29:26;47.67;;;18.45;;
40339;SDS011;26044;50.864;20.658;2023-04-05T00:31:53;47.80;;;19.50;;
40339;SDS011;26044;50.864;20.658;2023-04-05T00:34:21;45.10;;;19.83;;
40339;SDS011;26044;50.864;20.658;2023-04-05T00:36:48;48.70;;;19.65;;
40339;SDS011;26044;50.864;20.658;2023-04-05T00:39:15;46.42;;;19.80;;
40339;SDS011;26044;50.864;20.658;2023-04-05T00:41:43;45.10;;;19.00;;
40339;SDS011;26044;50.864;20.658;2023-04-05T00:44:13;45.83;;;20.20;;
40339;SDS011;26044;50.864;20.658;2023-04-05T00:46:40;42.00;;;19.50;;
40339;SDS011;26044;50.864;20.658;2023-04-05T00:49:07;43.85;;;18.60;;
40339;SDS011;26044;50.864;20.658;2023-04-05T00:51:34;45.83;;;20.25;;
40339;SDS011;26044;50.864;20.658;2023-04-05T00:54:03;46.60;;;20.08;;
40339;SDS011;26044;50.864;20.658;2023-04-05T00:56:31;49.95;;;19.30;;
40339;SDS011;26044;50.864;20.658;2023-04-05T00:58:58;46.33;;;19.13;;
40339;SDS011;26044;50.864;20.658;2023-04-05T01:01:25;49.70;;;19.67;;
40339;SDS011;26044;50.864;20.658;2023-04-05T01:03:57;56.05;;;19.90;;
40339;SDS011;26044;50.864;20.658;2023-04-05T01:09:50;48.80;;;20.00;;
40339;SDS011;26044;50.864;20.658;2023-04-05T01:12:22;47.00;;;19.67;;
40339;SDS011;26044;50.864;20.658;2023-04-05T01:14:53;51.55;;;20.83;;
40339;SDS011;26044;50.864;20.658;2023-04-05T01:17:21;51.50;;;18.95;;
40339;SDS011;26044;50.864;20.658;2023-04-05T01:19:50;48.70;;;20.58;;
40339;SDS011;26044;50.864;20.658;2023-04-05T01:30:34;47.13;;;21.00;;
40339;SDS011;26044;50.864;20.658;2023-04-05T01:35:54;46.83;;;19.92;;
40339;SDS011;26044;50.864;20.658;2023-04-05T01:38:27;47.38;;;19.67;;
40339;SDS011;26044;50.864;20.658;2023-04-05T01:40:55;46.35;;;18.92;;
40339;SDS011;26044;50.864;20.658;2023-04-05T01:43:22;44.42;;;19.48;;
40339;SDS011;26044;50.864;20.658;2023-04-05T01:45:49;46.60;;;18.83;;
40339;SDS011;26044;50.864;20.658;2023-04-05T01:48:15;46.40;;;19.48;;
40339;SDS011;26044;50.864;20.658;2023-04-05T01:50:42;41.58;;;16.95;;
40339;SDS011;26044;50.864;20.658;2023-04-05T01:53:09;46.75;;;18.17;;
40339;SDS011;26044;50.864;20.658;2023-04-05T01:55:36;44.10;;;18.33;;
40339;SDS011;26044;50.864;20.658;2023-04-05T01:58:03;44.05;;;18.35;;
40339;SDS011;26044;50.864;20.658;2023-04-05T02:00:30;46.58;;;18.48;;
40339;SDS011;26044;50.864;20.658;2023-04-05T02:02:57;44.72;;;17.67;;
40339;SDS011;26044;50.864;20.658;2023-04-05T02:05:24;47.65;;;17.90;;
40339;SDS011;26044;50.864;20.658;2023-04-05T02:07:51;40.45;;;17.52;;
40339;SDS011;26044;50.864;20.658;2023-04-05T02:10:18;43.88;;;17.42;;
40339;SDS011;26044;50.864;20.658;2023-04-05T02:12:45;46.10;;;16.58;;
40339;SDS011;26044;50.864;20.658;2023-04-05T02:15:12;45.97;;;18.35;;
40339;SDS011;26044;50.864;20.658;2023-04-05T02:17:39;38.78;;;17.45;;
40339;SDS011;26044;50.864;20.658;2023-04-05T02:20:11;41.90;;;16.23;;
40339;SDS011;26044;50.864;20.658;2023-04-05T02:22:40;44.92;;;17.25;;
40339;SDS011;26044;50.864;20.658;2023-04-05T02:25:07;43.15;;;17.25;;
40339;SDS011;26044;50.864;20.658;2023-04-05T02:27:34;41.92;;;16.90;;
40339;SDS011;26044;50.864;20.658;2023-04-05T02:30:01;44.03;;;18.35;;
40339;SDS011;26044;50.864;20.658;2023-04-05T02:32:28;42.88;;;18.20;;
40339;SDS011;26044;50.864;20.658;2023-04-05T02:34:55;44.17;;;18.92;;
40339;SDS011;26044;50.864;20.658;2023-04-05T02:37:21;42.88;;;18.55;;
40339;SDS011;26044;50.864;20.658;2023-04-05T02:39:48;47.05;;;19.42;;
40339;SDS011;26044;50.864;20.658;2023-04-05T02:42:15;47.13;;;18.77;;
40339;SDS011;26044;50.864;20.658;2023-04-05T02:44:42;50.35;;;17.88;;
40339;SDS011;26044;50.864;20.658;2023-04-05T02:47:10;44.35;;;17.30;;
40339;SDS011;26044;50.864;20.658;2023-04-05T02:49:37;41.80;;;17.13;;
40339;SDS011;26044;50.864;20.658;2023-04-05T02:52:03;42.92;;;17.60;;
40339;SDS011;26044;50.864;20.658;2023-04-05T02:54:30;46.88;;;18.17;;
40339;SDS011;26044;50.864;20.658;2023-04-05T02:56:57;50.38;;;18.52;;
40339;SDS011;26044;50.864;20.658;2023-04-05T02:59:27;44.30;;;18.25;;
40339;SDS011;26044;50.864;20.658;2023-04-05T03:01:54;41.85;;;18.42;;
40339;SDS011;26044;50.864;20.658;2023-04-05T03:04:21;40.08;;;16.55;;
40339;SDS011;26044;50.864;20.658;2023-04-05T03:06:53;43.42;;;16.67;;
40339;SDS011;26044;50.864;20.658;2023-04-05T03:09:22;45.13;;;18.00;;
40339;SDS011;26044;50.864;20.658;2023-04-05T03:11:49;46.67;;;17.63;;
40339;SDS011;26044;50.864;20.658;2023-04-05T03:14:16;43.95;;;16.65;;
40339;SDS011;26044;50.864;20.658;2023-04-05T03:16:42;41.28;;;17.85;;
40339;SDS011;26044;50.864;20.658;2023-04-05T03:19:09;45.83;;;18.23;;
40339;SDS011;26044;50.864;20.658;2023-04-05T03:21:36;44.88;;;18.30;;
40339;SDS011;26044;50.864;20.658;2023-04-05T03:24:05;39.45;;;18.23;;
40339;SDS011;26044;50.864;20.658;2023-04-05T03:26:33;47.15;;;19.30;;
40339;SDS011;26044;50.864;20.658;2023-04-05T03:29:00;44.22;;;17.23;;
40339;SDS011;26044;50.864;20.658;2023-04-05T03:31:27;43.58;;;17.98;;
40339;SDS011;26044;50.864;20.658;2023-04-05T03:33:55;41.95;;;17.85;;
40339;SDS011;26044;50.864;20.658;2023-04-05T03:36:22;39.63;;;17.25;;
40339;SDS011;26044;50.864;20.658;2023-04-05T03:38:49;45.35;;;17.98;;
40339;SDS011;26044;50.864;20.658;2023-04-05T03:41:17;46.88;;;17.20;;
40339;SDS011;26044;50.864;20.658;2023-04-05T03:43:43;40.58;;;17.40;;
40339;SDS011;26044;50.864;20.658;2023-04-05T03:46:10;40.88;;;16.17;;
40339;SDS011;26044;50.864;20.658;2023-04-05T03:48:37;39.45;;;17.02;;
40339;SDS011;26044;50.864;20.658;2023-04-05T03:51:04;41.50;;;16.80;;
40339;SDS011;26044;50.864;20.658;2023-04-05T03:53:31;41.10;;;17.23;;
40339;SDS011;26044;50.864;20.658;2023-04-05T03:55:58;49.50;;;17.80;;
40339;SDS011;26044;50.864;20.658;2023-04-05T03:58:25;42.50;;;16.83;;
40339;SDS011;26044;50.864;20.658;2023-04-05T04:00:52;45.22;;;17.00;;
40339;SDS011;26044;50.864;20.658;2023-04-05T04:03:21;46.40;;;18.45;;
40339;SDS011;26044;50.864;20.658;2023-04-05T04:05:47;40.53;;;17.50;;
40339;SDS011;26044;50.864;20.658;2023-04-05T04:08:14;49.95;;;18.17;;
40339;SDS011;26044;50.864;20.658;2023-04-05T04:10:41;44.63;;;17.50;;
40339;SDS011;26044;50.864;20.658;2023-04-05T04:13:08;46.88;;;17.17;;
40339;SDS011;26044;50.864;20.658;2023-04-05T04:15:34;46.58;;;18.35;;
40339;SDS011;26044;50.864;20.658;2023-04-05T04:18:01;41.70;;;18.95;;
40339;SDS011;26044;50.864;20.658;2023-04-05T04:20:28;46.03;;;17.90;;
40339;SDS011;26044;50.864;20.658;2023-04-05T04:22:56;46.38;;;19.33;;
40339;SDS011;26044;50.864;20.658;2023-04-05T04:25:24;47.95;;;18.70;;
40339;SDS011;26044;50.864;20.658;2023-04-05T04:27:55;42.45;;;19.23;;
40339;SDS011;26044;50.864;20.658;2023-04-05T04:30:24;45.53;;;18.95;;
40339;SDS011;26044;50.864;20.658;2023-04-05T04:32:50;42.67;;;18.67;;
40339;SDS011;26044;50.864;20.658;2023-04-05T04:35:19;40.35;;;17.20;;
40339;SDS011;26044;50.864;20.658;2023-04-05T04:37:54;45.28;;;19.52;;
40339;SDS011;26044;50.864;20.658;2023-04-05T04:40:28;48.42;;;19.27;;
40339;SDS011;26044;50.864;20.658;2023-04-05T04:43:09;48.47;;;20.10;;
40339;SDS011;26044;50.864;20.658;2023-04-05T04:45:39;44.83;;;18.92;;
40339;SDS011;26044;50.864;20.658;2023-04-05T04:48:07;49.28;;;20.25;;
40339;SDS011;26044;50.864;20.658;2023-04-05T04:50:33;53.20;;;21.60;;
40339;SDS011;26044;50.864;20.658;2023-04-05T04:53:01;50.70;;;20.38;;
40339;SDS011;26044;50.864;20.658;2023-04-05T04:55:27;52.08;;;20.05;;
40339;SDS011;26044;50.864;20.658;2023-04-05T04:57:58;53.22;;;22.50;;
40339;SDS011;26044;50.864;20.658;2023-04-05T05:00:25;49.92;;;20.92;;
40339;SDS011;26044;50.864;20.658;2023-04-05T05:02:52;55.40;;;22.75;;
40339;SDS011;26044;50.864;20.658;2023-04-05T05:05:20;56.67;;;21.30;;
40339;SDS011;26044;50.864;20.658;2023-04-05T05:07:51;48.83;;;21.17;;
40339;SDS011;26044;50.864;20.658;2023-04-05T05:10:19;47.05;;;19.42;;
40339;SDS011;26044;50.864;20.658;2023-04-05T05:12:46;53.60;;;23.08;;
40339;SDS011;26044;50.864;20.658;2023-04-05T05:15:14;53.42;;;22.63;;
40339;SDS011;26044;50.864;20.658;2023-04-05T05:17:40;45.53;;;21.00;;
40339;SDS011;26044;50.864;20.658;2023-04-05T05:20:08;52.63;;;21.40;;
40339;SDS011;26044;50.864;20.658;2023-04-05T05:22:37;54.80;;;23.00;;
40339;SDS011;26044;50.864;20.658;2023-04-05T05:25:04;46.80;;;21.00;;
40339;SDS011;26044;50.864;20.658;2023-04-05T05:27:34;53.72;;;22.27;;
40339;SDS011;26044;50.864;20.658;2023-04-05T05:30:01;52.65;;;21.90;;
40339;SDS011;26044;50.864;20.658;2023-04-05T05:32:29;52.25;;;21.92;;
40339;SDS011;26044;50.864;20.658;2023-04-05T05:34:55;41.08;;;20.27;;
40339;SDS011;26044;50.864;20.658;2023-04-05T05:37:29;48.92;;;20.95;;
40339;SDS011;26044;50.864;20.658;2023-04-05T05:39:57;57.97;;;22.20;;
40339;SDS011;26044;50.864;20.658;2023-04-05T05:42:24;59.80;;;21.73;;
40339;SDS011;26044;50.864;20.658;2023-04-05T05:44:52;48.92;;;20.52;;
40339;SDS011;26044;50.864;20.658;2023-04-05T05:47:19;48.88;;;20.92;;
40339;SDS011;26044;50.864;20.658;2023-04-05T05:49:46;49.60;;;20.90;;
40339;SDS011;26044;50.864;20.658;2023-04-05T05:52:15;48.10;;;21.75;;
40339;SDS011;26044;50.864;20.658;2023-04-05T05:54:42;49.28;;;20.75;;
40339;SDS011;26044;50.864;20.658;2023-04-05T05:57:08;51.58;;;23.05;;
40339;SDS011;26044;50.864;20.658;2023-04-05T05:59:36;49.67;;;21.95;;
40339;SDS011;26044;50.864;20.658;2023-04-05T06:02:04;51.17;;;21.15;;
40339;SDS011;26044;50.864;20.658;2023-04-05T06:04:31;53.00;;;22.60;;
40339;SDS011;26044;50.864;20.658;2023-04-05T06:06:59;51.35;;;21.38;;
40339;SDS011;26044;50.864;20.658;2023-04-05T06:09:26;58.90;;;20.83;;
40339;SDS011;26044;50.864;20.658;2023-04-05T06:11:54;48.83;;;20.20;;
40339;SDS011;26044;50.864;20.658;2023-04-05T06:14:23;49.22;;;21.15;;
40339;SDS011;26044;50.864;20.658;2023-04-05T06:16:50;54.38;;;20.55;;
40339;SDS011;26044;50.864;20.658;2023-04-05T06:19:17;54.53;;;22.55;;
40339;SDS011;26044;50.864;20.658;2023-04-05T06:21:44;50.28;;;22.90;;
40339;SDS011;26044;50.864;20.658;2023-04-05T06:24:11;55.30;;;22.45;;
40339;SDS011;26044;50.864;20.658;2023-04-05T06:26:37;57.15;;;23.80;;
40339;SDS011;26044;50.864;20.658;2023-04-05T06:29:04;50.22;;;21.02;;
40339;SDS011;26044;50.864;20.658;2023-04-05T06:31:32;47.85;;;19.38;;
40339;SDS011;26044;50.864;20.658;2023-04-05T06:34:00;40.50;;;18.90;;
40339;SDS011;26044;50.864;20.658;2023-04-05T06:36:30;49.28;;;19.88;;
40339;SDS011;26044;50.864;20.658;2023-04-05T06:38:59;44.08;;;19.95;;
40339;SDS011;26044;50.864;20.658;2023-04-05T06:41:26;45.65;;;18.65;;
40339;SDS011;26044;50.864;20.658;2023-04-05T06:43:53;51.05;;;20.60;;
40339;SDS011;26044;50.864;20.658;2023-04-05T06:46:21;46.50;;;20.98;;
40339;SDS011;26044;50.864;20.658;2023-04-05T06:48:48;48.75;;;20.10;;
40339;SDS011;26044;50.864;20.658;2023-04-05T06:51:15;44.17;;;19.65;;
40339;SDS011;26044;50.864;20.658;2023-04-05T06:53:43;46.20;;;20.60;;
40339;SDS011;26044;50.864;20.658;2023-04-05T06:56:10;47.78;;;20.05;;
40339;SDS011;26044;50.864;20.658;2023-04-05T06:58:37;44.15;;;18.98;;
40339;SDS011;26044;50.864;20.658;2023-04-05T07:01:04;54.45;;;23.85;;
40339;SDS011;26044;50.864;20.658;2023-04-05T07:03:31;56.25;;;25.25;;
40339;SDS011;26044;50.864;20.658;2023-04-05T07:05:59;54.55;;;23.50;;
40339;SDS011;26044;50.864;20.658;2023-04-05T07:08:26;52.97;;;21.15;;
40339;SDS011;26044;50.864;20.658;2023-04-05T07:10:54;40.83;;;18.30;;
40339;SDS011;26044;50.864;20.658;2023-04-05T07:13:22;45.55;;;17.70;;
40339;SDS011;26044;50.864;20.658;2023-04-05T07:15:50;52.45;;;20.10;;
40339;SDS011;26044;50.864;20.658;2023-04-05T07:18:17;48.22;;;21.10;;
40339;SDS011;26044;50.864;20.658;2023-04-05T07:20:45;44.95;;;19.15;;
40339;SDS011;26044;50.864;20.658;2023-04-05T07:23:14;36.60;;;15.53;;
40339;SDS011;26044;50.864;20.658;2023-04-05T07:25:41;34.63;;;14.27;;
40339;SDS011;26044;50.864;20.658;2023-04-05T07:28:09;37.92;;;14.80;;
40339;SDS011;26044;50.864;20.658;2023-04-05T07:30:36;38.00;;;14.93;;
40339;SDS011;26044;50.864;20.658;2023-04-05T07:33:03;34.67;;;15.95;;
40339;SDS011;26044;50.864;20.658;2023-04-05T07:35:30;42.92;;;17.08;;
40339;SDS011;26044;50.864;20.658;2023-04-05T07:37:56;33.85;;;15.05;;
40339;SDS011;26044;50.864;20.658;2023-04-05T07:40:24;46.70;;;17.73;;
40339;SDS011;26044;50.864;20.658;2023-04-05T07:42:50;40.35;;;17.38;;
40339;SDS011;26044;50.864;20.658;2023-04-05T07:45:17;33.80;;;13.40;;
40339;SDS011;26044;50.864;20.658;2023-04-05T07:47:44;32.88;;;12.32;;
40339;SDS011;26044;50.864;20.658;2023-04-05T07:50:11;43.47;;;17.08;;
40339;SDS011;26044;50.864;20.658;2023-04-05T07:52:42;38.55;;;16.10;;
40339;SDS011;26044;50.864;20.658;2023-04-05T07:55:09;35.40;;;13.55;;
40339;SDS011;26044;50.864;20.658;2023-04-05T07:57:36;32.83;;;12.88;;
40339;SDS011;26044;50.864;20.658;2023-04-05T08:00:03;34.90;;;12.90;;
40339;SDS011;26044;50.864;20.658;2023-04-05T08:02:36;28.48;;;11.23;;
40339;SDS011;26044;50.864;20.658;2023-04-05T08:05:03;23.42;;;9.95;;
40339;SDS011;26044;50.864;20.658;2023-04-05T08:07:30;27.67;;;8.90;;
40339;SDS011;26044;50.864;20.658;2023-04-05T08:09:57;25.75;;;8.73;;
40339;SDS011;26044;50.864;20.658;2023-04-05T08:12:25;23.75;;;9.18;;
40339;SDS011;26044;50.864;20.658;2023-04-05T08:14:52;30.38;;;8.70;;
40339;SDS011;26044;50.864;20.658;2023-04-05T08:17:19;31.40;;;9.68;;
40339;SDS011;26044;50.864;20.658;2023-04-05T08:19:46;26.60;;;9.52;;
40339;SDS011;26044;50.864;20.658;2023-04-05T08:22:14;16.15;;;4.82;;
40339;SDS011;26044;50.864;20.658;2023-04-05T08:24:42;12.13;;;3.90;;
40339;SDS011;26044;50.864;20.658;2023-04-05T08:27:10;15.05;;;4.03;;
40339;SDS011;26044;50.864;20.658;2023-04-05T08:29:37;12.65;;;3.53;;
40339;SDS011;26044;50.864;20.658;2023-04-05T08:32:04;12.35;;;4.13;;
40339;SDS011;26044;50.864;20.658;2023-04-05T08:34:31;12.50;;;4.25;;
40339;SDS011;26044;50.864;20.658;2023-04-05T08:36:58;16.00;;;4.28;;
40339;SDS011;26044;50.864;20.658;2023-04-05T08:39:25;13.27;;;4.47;;
40339;SDS011;26044;50.864;20.658;2023-04-05T08:42:12;10.38;;;3.33;;
40339;SDS011;26044;50.864;20.658;2023-04-05T08:44:43;14.43;;;4.20;;
40339;SDS011;26044;50.864;20.658;2023-04-05T08:47:11;15.48;;;3.53;;
40339;SDS011;26044;50.864;20.658;2023-04-05T08:49:44;17.85;;;5.05;;
40339;SDS011;26044;50.864;20.658;2023-04-05T08:52:11;20.08;;;6.30;;
40339;SDS011;26044;50.864;20.658;2023-04-05T08:54:38;17.58;;;5.32;;
40339;SDS011;26044;50.864;20.658;2023-04-05T08:57:05;15.60;;;5.45;;
40339;SDS011;26044;50.864;20.658;2023-04-05T08:59:34;25.38;;;5.88;;
40339;SDS011;26044;50.864;20.658;2023-04-05T09:02:05;17.85;;;5.45;;
40339;SDS011;26044;50.864;20.658;2023-04-05T09:04:39;17.05;;;4.90;;
40339;SDS011;26044;50.864;20.658;2023-04-05T09:07:10;19.40;;;6.05;;
40339;SDS011;26044;50.864;20.658;2023-04-05T09:09:38;16.67;;;5.05;;
40339;SDS011;26044;50.864;20.658;2023-04-05T09:12:09;17.70;;;5.05;;
40339;SDS011;26044;50.864;20.658;2023-04-05T09:14:37;16.88;;;4.97;;
40339;SDS011;26044;50.864;20.658;2023-04-05T09:17:04;17.58;;;5.13;;
40339;SDS011;26044;50.864;20.658;2023-04-05T09:19:31;18.80;;;5.13;;
40339;SDS011;26044;50.864;20.658;2023-04-05T09:21:59;12.27;;;3.72;;
40339;SDS011;26044;50.864;20.658;2023-04-05T09:27:07;16.25;;;4.53;;
40339;SDS011;26044;50.864;20.658;2023-04-05T09:29:39;14.75;;;4.25;;
40339;SDS011;26044;50.864;20.658;2023-04-05T09:32:07;14.48;;;3.90;;
40339;SDS011;26044;50.864;20.658;2023-04-05T09:34:36;15.77;;;4.30;;
40339;SDS011;26044;50.864;20.658;2023-04-05T09:39:41;9.35;;;3.28;;
40339;SDS011;26044;50.864;20.658;2023-04-05T09:42:12;17.60;;;4.55;;
40339;SDS011;26044;50.864;20.658;2023-04-05T09:47:31;12.50;;;3.80;;
40339;SDS011;26044;50.864;20.658;2023-04-05T09:50:25;15.07;;;4.38;;
40339;SDS011;26044;50.864;20.658;2023-04-05T09:52:48;16.25;;;4.68;;
40339;SDS011;26044;50.864;20.658;2023-04-05T09:55:27;16.65;;;4.57;;
40339;SDS011;26044;50.864;20.658;2023-04-05T09:57:54;11.18;;;3.92;;
40339;SDS011;26044;50.864;20.658;2023-04-05T10:00:21;13.68;;;4.20;;
40339;SDS011;26044;50.864;20.658;2023-04-05T10:02:51;15.40;;;4.00;;
40339;SDS011;26044;50.864;20.658;2023-04-05T10:05:24;13.65;;;4.22;;
40339;SDS011;26044;50.864;20.658;2023-04-05T10:07:54;11.32;;;3.70;;
40339;SDS011;26044;50.864;20.658;2023-04-05T10:10:21;16.05;;;4.70;;
40339;SDS011;26044;50.864;20.658;2023-04-05T10:12:49;12.00;;;3.75;;
40339;SDS011;26044;50.864;20.658;2023-04-05T10:15:16;18.13;;;4.53;;
40339;SDS011;26044;50.864;20.658;2023-04-05T10:18:02;13.60;;;4.53;;
40339;SDS011;26044;50.864;20.658;2023-04-05T10:20:33;13.00;;;4.28;;
40339;SDS011;26044;50.864;20.658;2023-04-05T10:23:07;13.65;;;3.72;;
40339;SDS011;26044;50.864;20.658;2023-04-05T10:33:42;12.63;;;3.92;;
40339;SDS011;26044;50.864;20.658;2023-04-05T10:39:03;11.82;;;4.20;;
40339;SDS011;26044;50.864;20.658;2023-04-05T10:41:41;21.45;;;4.30;;
40339;SDS011;26044;50.864;20.658;2023-04-05T10:44:17;17.30;;;4.10;;
40339;SDS011;26044;50.864;20.658;2023-04-05T10:46:52;15.63;;;4.18;;
40339;SDS011;26044;50.864;20.658;2023-04-05T10:49:32;14.38;;;4.00;;
40339;SDS011;26044;50.864;20.658;2023-04-05T10:52:05;12.60;;;4.38;;
40339;SDS011;26044;50.864;20.658;2023-04-05T10:54:32;21.05;;;3.38;;
40339;SDS011;26044;50.864;20.658;2023-04-05T10:57:03;16.60;;;3.90;;
40339;SDS011;26044;50.864;20.658;2023-04-05T10:59:35;13.82;;;3.72;;
40339;SDS011;26044;50.864;20.658;2023-04-05T11:02:07;9.32;;;3.42;;
40339;SDS011;26044;50.864;20.658;2023-04-05T11:04:34;11.43;;;4.18;;
40339;SDS011;26044;50.864;20.658;2023-04-05T11:07:17;12.57;;;3.53;;
40339;SDS011;26044;50.864;20.658;2023-04-05T11:09:49;13.45;;;3.85;;
40339;SDS011;26044;50.864;20.658;2023-04-05T11:12:17;13.07;;;3.65;;
40339;SDS011;26044;50.864;20.658;2023-04-05T11:14:44;18.60;;;4.50;;
40339;SDS011;26044;50.864;20.658;2023-04-05T11:17:24;12.40;;;3.72;;
40339;SDS011;26044;50.864;20.658;2023-04-05T11:20:02;21.35;;;4.93;;
40339;SDS011;26044;50.864;20.658;2023-04-05T11:22:30;16.15;;;3.88;;
40339;SDS011;26044;50.864;20.658;2023-04-05T11:24:58;10.40;;;3.35;;
40339;SDS011;26044;50.864;20.658;2023-04-05T11:27:31;12.10;;;3.28;;
40339;SDS011;26044;50.864;20.658;2023-04-05T11:30:00;13.18;;;3.40;;
40339;SDS011;26044;50.864;20.658;2023-04-05T11:32:37;10.48;;;3.75;;
40339;SDS011;26044;50.864;20.658;2023-04-05T11:35:12;12.25;;;3.45;;
40339;SDS011;26044;50.864;20.658;2023-04-05T11:40:31;11.02;;;3.35;;
40339;SDS011;26044;50.864;20.658;2023-04-05T11:45:34;12.93;;;3.58;;
40339;SDS011;26044;50.864;20.658;2023-04-05T11:48:06;15.57;;;3.40;;
40339;SDS011;26044;50.864;20.658;2023-04-05T11:50:37;8.35;;;3.63;;
40339;SDS011;26044;50.864;20.658;2023-04-05T11:53:08;11.43;;;3.30;;
40339;SDS011;26044;50.864;20.658;2023-04-05T11:55:39;14.18;;;3.15;;
40339;SDS011;26044;50.864;20.658;2023-04-05T11:58:12;10.15;;;3.67;;
40339;SDS011;26044;50.864;20.658;2023-04-05T12:01:02;13.45;;;3.67;;
40339;SDS011;26044;50.864;20.658;2023-04-05T12:03:32;8.95;;;3.40;;
40339;SDS011;26044;50.864;20.658;2023-04-05T12:06:01;16.95;;;4.60;;
40339;SDS011;26044;50.864;20.658;2023-04-05T12:08:39;9.60;;;3.22;;
40339;SDS011;26044;50.864;20.658;2023-04-05T12:11:08;10.73;;;3.58;;
40339;SDS011;26044;50.864;20.658;2023-04-05T12:13:37;11.48;;;3.78;;
40339;SDS011;26044;50.864;20.658;2023-04-05T12:16:04;14.15;;;3.70;;
40339;SDS011;26044;50.864;20.658;2023-04-05T12:18:34;9.95;;;3.17;;
40339;SDS011;26044;50.864;20.658;2023-04-05T12:21:04;12.02;;;3.88;;
40339;SDS011;26044;50.864;20.658;2023-04-05T12:23:35;14.02;;;3.45;;
40339;SDS011;26044;50.864;20.658;2023-04-05T12:26:04;10.18;;;2.78;;
40339;SDS011;26044;50.864;20.658;2023-04-05T12:28:48;8.02;;;3.35;;
40339;SDS011;26044;50.864;20.658;2023-04-05T12:31:15;13.23;;;3.80;;
40339;SDS011;26044;50.864;20.658;2023-04-05T12:33:42;11.55;;;3.22;;
40339;SDS011;26044;50.864;20.658;2023-04-05T12:36:09;12.77;;;3.63;;
40339;SDS011;26044;50.864;20.658;2023-04-05T12:38:39;14.30;;;4.00;;
40339;SDS011;26044;50.864;20.658;2023-04-05T12:41:06;12.32;;;4.25;;
40339;SDS011;26044;50.864;20.658;2023-04-05T12:43:39;10.65;;;3.47;;
40339;SDS011;26044;50.864;20.658;2023-04-05T12:46:16;11.23;;;3.85;;
40339;SDS011;26044;50.864;20.658;2023-04-05T12:48:48;20.50;;;4.20;;
40339;SDS011;26044;50.864;20.658;2023-04-05T12:51:16;16.30;;;4.93;;
40339;SDS011;26044;50.864;20.658;2023-04-05T12:53:46;17.50;;;4.47;;
40339;SDS011;26044;50.864;20.658;2023-04-05T12:56:15;18.17;;;4.43;;
40339;SDS011;26044;50.864;20.658;2023-04-05T12:58:43;12.25;;;3.80;;
40339;SDS011;26044;50.864;20.658;2023-04-05T13:01:17;10.68;;;3.35;;
40339;SDS011;26044;50.864;20.658;2023-04-05T13:03:44;12.57;;;3.78;;
40339;SDS011;26044;50.864;20.658;2023-04-05T13:08:41;14.48;;;3.65;;
40339;SDS011;26044;50.864;20.658;2023-04-05T13:11:08;9.50;;;3.15;;
40339;SDS011;26044;50.864;20.658;2023-04-05T13:13:35;13.57;;;3.53;;
40339;SDS011;26044;50.864;20.658;2023-04-05T13:16:02;11.65;;;3.88;;
40339;SDS011;26044;50.864;20.658;2023-04-05T13:18:29;10.95;;;3.85;;
40339;SDS011;26044;50.864;20.658;2023-04-05T13:20:55;16.88;;;3.90;;
40339;SDS011;26044;50.864;20.658;2023-04-05T13:23:22;12.30;;;3.47;;
40339;SDS011;26044;50.864;20.658;2023-04-05T13:25:49;18.98;;;4.72;;
40339;SDS011;26044;50.864;20.658;2023-04-05T13:28:16;14.10;;;4.35;;
40339;SDS011;26044;50.864;20.658;2023-04-05T13:30:43;14.32;;;3.85;;
40339;SDS011;26044;50.864;20.658;2023-04-05T13:33:09;12.93;;;4.00;;
40339;SDS011;26044;50.864;20.658;2023-04-05T13:35:36;13.65;;;3.78;;
40339;SDS011;26044;50.864;20.658;2023-04-05T13:38:03;18.77;;;4.15;;
40339;SDS011;26044;50.864;20.658;2023-04-05T13:40:31;11.95;;;3.72;;
40339;SDS011;26044;50.864;20.658;2023-04-05T13:42:57;12.85;;;3.95;;
40339;SDS011;26044;50.864;20.658;2023-04-05T13:45:26;14.82;;;4.00;;
40339;SDS011;26044;50.864;20.658;2023-04-05T13:47:53;11.30;;;3.60;;
40339;SDS011;26044;50.864;20.658;2023-04-05T13:50:20;12.43;;;4.10;;
40339;SDS011;26044;50.864;20.658;2023-04-05T13:52:47;15.35;;;3.88;;
40339;SDS011;26044;50.864;20.658;2023-04-05T13:55:14;11.75;;;3.60;;
40339;SDS011;26044;50.864;20.658;2023-04-05T13:57:41;15.98;;;4.70;;
40339;SDS011;26044;50.864;20.658;2023-04-05T14:00:08;12.88;;;4.20;;
40339;SDS011;26044;50.864;20.658;2023-04-05T14:02:35;14.85;;;4.40;;
40339;SDS011;26044;50.864;20.658;2023-04-05T14:05:02;27.30;;;7.38;;
40339;SDS011;26044;50.864;20.658;2023-04-05T14:07:30;16.50;;;4.40;;
40339;SDS011;26044;50.864;20.658;2023-04-05T14:09:57;18.40;;;5.65;;
40339;SDS011;26044;50.864;20.658;2023-04-05T14:12:23;24.70;;;7.47;;
40339;SDS011;26044;50.864;20.658;2023-04-05T14:14:50;16.23;;;5.07;;
40339;SDS011;26044;50.864;20.658;2023-04-05T14:17:17;12.55;;;4.47;;
40339;SDS011;26044;50.864;20.658;2023-04-05T14:19:44;23.50;;;7.55;;
40339;SDS011;26044;50.864;20.658;2023-04-05T14:22:11;28.13;;;9.35;;
40339;SDS011;26044;50.864;20.658;2023-04-05T14:24:38;28.48;;;10.80;;
40339;SDS011;26044;50.864;20.658;2023-04-05T14:27:04;32.20;;;15.85;;
40339;SDS011;26044;50.864;20.658;2023-04-05T14:29:31;17.35;;;5.45;;
40339;SDS011;26044;50.864;20.658;2023-04-05T14:31:58;13.35;;;4.22;;
40339;SDS011;26044;50.864;20.658;2023-04-05T14:34:25;15.48;;;4.82;;
40339;SDS011;26044;50.864;20.658;2023-04-05T14:36:52;24.73;;;5.60;;
40339;SDS011;26044;50.864;20.658;2023-04-05T14:39:21;16.02;;;4.93;;
40339;SDS011;26044;50.864;20.658;2023-04-05T14:41:48;19.77;;;6.53;;
40339;SDS011;26044;50.864;20.658;2023-04-05T14:44:17;18.95;;;5.10;;
40339;SDS011;26044;50.864;20.658;2023-04-05T14:46:44;13.95;;;4.60;;
40339;SDS011;26044;50.864;20.658;2023-04-05T14:49:11;17.60;;;5.22;;
40339;SDS011;26044;50.864;20.658;2023-04-05T14:51:38;17.92;;;5.72;;
40339;SDS011;26044;50.864;20.658;2023-04-05T14:54:05;16.33;;;5.10;;
40339;SDS011;26044;50.864;20.658;2023-04-05T14:56:34;12.23;;;3.70;;
40339;SDS011;26044;50.864;20.658;2023-04-05T14:59:01;18.60;;;4.72;;
40339;SDS011;26044;50.864;20.658;2023-04-05T15:01:28;16.92;;;4.85;;
40339;SDS011;26044;50.864;20.658;2023-04-05T15:03:55;25.35;;;5.63;;
40339;SDS011;26044;50.864;20.658;2023-04-05T15:06:22;17.98;;;4.45;;